Time;durP1;ratioP1;P1;durP2;ratioP2;P2;SDS_P1;SDS_P2;PMS_P1;PMS_P2;Temp;Humidity;BMP_temperature;BMP_pressure;BME280_temperature;BME280_humidity;BME280_pressure;Samples;Min_cycle;Max_cycle;Signal;HPM_P1;HPM_P2
2022/11/27 00:01:12;;;;;;;14.18;7.20;;;2.20;95.90;;;;;;4955243;29;20273;-67
2022/11/27 00:03:40;;;;;;;16.27;7.85;;;2.20;95.90;;;;;;4955740;29;20225;-67
2022/11/27 00:06:12;;;;;;;14.50;6.78;;;2.20;95.90;;;;;;4954530;29;20202;-67
2022/11/27 00:08:39;;;;;;;19.73;6.78;;;2.20;95.80;;;;;;4955916;29;20200;-67
2022/11/27 00:11:07;;;;;;;24.70;7.55;;;2.20;95.80;;;;;;4954804;29;20252;-67
2022/11/27 00:13:35;;;;;;;24.23;7.15;;;2.20;95.80;;;;;;4955327;29;20229;-67
2022/11/27 00:16:02;;;;;;;11.23;5.40;;;2.20;95.80;;;;;;4954713;29;20194;-67
2022/11/27 00:18:29;;;;;;;18.10;7.88;;;2.20;95.90;;;;;;4955533;29;20218;-67
2022/11/27 00:20:56;;;;;;;10.85;6.75;;;2.30;96.10;;;;;;4954229;29;20265;-68
2022/11/27 00:23:25;;;;;;;22.45;10.18;;;2.30;96.30;;;;;;4955779;29;20591;-67
2022/11/27 00:25:52;;;;;;;10.68;8.30;;;2.40;96.30;;;;;;4954364;29;20221;-67
2022/11/27 00:28:19;;;;;;;16.02;8.05;;;2.40;96.00;;;;;;4954461;28;20193;-67
2022/11/27 00:30:47;;;;;;;10.35;6.68;;;2.40;95.90;;;;;;4953954;29;20197;-67
2022/11/27 00:33:14;;;;;;;16.92;7.55;;;2.40;95.70;;;;;;4955173;29;20613;-67
2022/11/27 00:35:41;;;;;;;17.13;7.32;;;2.40;95.60;;;;;;4953634;29;20217;-67
2022/11/27 00:38:08;;;;;;;20.92;6.70;;;2.50;95.50;;;;;;4954905;29;20601;-67
2022/11/27 00:40:37;;;;;;;9.70;6.22;;;2.50;95.60;;;;;;4953955;29;20190;-67
2022/11/27 00:43:03;;;;;;;11.85;7.05;;;2.50;95.60;;;;;;4954949;29;20252;-67
2022/11/27 00:45:30;;;;;;;15.75;8.25;;;2.50;95.70;;;;;;4953468;29;20264;-67
2022/11/27 00:47:57;;;;;;;24.70;7.55;;;2.40;95.60;;;;;;4954035;29;20190;-67
2022/11/27 00:50:24;;;;;;;22.52;7.60;;;2.30;95.30;;;;;;4954039;29;20221;-67
2022/11/27 00:52:51;;;;;;;18.33;7.43;;;2.20;95.70;;;;;;4954837;29;20648;-67
2022/11/27 00:55:18;;;;;;;18.17;7.15;;;2.20;95.80;;;;;;4953313;29;20213;-67
2022/11/27 00:57:47;;;;;;;13.85;7.57;;;2.10;96.20;;;;;;4954963;29;20656;-67
2022/11/27 01:00:15;;;;;;;13.35;6.45;;;2.10;96.50;;;;;;4953790;29;20245;-67
2022/11/27 01:02:42;;;;;;;15.13;7.35;;;2.10;96.90;;;;;;4954868;29;20277;-68
2022/11/27 01:05:09;;;;;;;15.88;5.80;;;2.10;96.60;;;;;;4952860;28;20300;-67
2022/11/27 01:07:36;;;;;;;18.42;7.25;;;2.00;97.00;;;;;;4954579;29;20233;-67
2022/11/27 01:10:04;;;;;;;14.00;6.57;;;2.10;97.10;;;;;;4952667;29;20186;-67
2022/11/27 01:12:31;;;;;;;36.47;9.10;;;2.10;97.20;;;;;;4953477;29;20276;-67
2022/11/27 01:14:59;;;;;;;13.60;6.03;;;2.20;97.30;;;;;;4953709;29;20217;-67
2022/11/27 01:17:26;;;;;;;9.90;5.65;;;2.10;96.80;;;;;;4953380;29;20198;-67
2022/11/27 01:19:53;;;;;;;8.35;5.07;;;2.10;96.80;;;;;;4953654;29;20241;-67
2022/11/27 01:22:20;;;;;;;15.02;5.53;;;2.20;96.50;;;;;;4953091;29;20213;-67
2022/11/27 01:24:47;;;;;;;9.90;5.88;;;2.20;96.70;;;;;;4954511;29;20198;-67
2022/11/27 01:27:14;;;;;;;9.52;5.80;;;2.20;96.70;;;;;;4953257;29;20237;-67
2022/11/27 01:29:41;;;;;;;14.45;7.00;;;2.20;96.70;;;;;;4954380;29;20649;-67
2022/11/27 01:32:10;;;;;;;8.55;6.57;;;2.20;96.50;;;;;;4953115;29;20620;-67
2022/11/27 01:34:37;;;;;;;12.93;6.50;;;2.10;96.80;;;;;;4954332;29;20198;-67
2022/11/27 01:37:04;;;;;;;14.88;7.53;;;2.10;96.60;;;;;;4953014;29;20201;-67
2022/11/27 01:39:31;;;;;;;15.93;7.60;;;2.10;96.80;;;;;;4954060;28;20539;-67
2022/11/27 01:41:57;;;;;;;9.20;5.80;;;2.20;96.80;;;;;;4952987;29;20198;-67
2022/11/27 01:44:49;;;;;;;11.85;5.90;;;2.20;96.50;;;;;;4954352;29;20345;-67
2022/11/27 01:47:27;;;;;;;9.73;5.55;;;2.20;96.00;;;;;;4952302;29;20712;-67
2022/11/27 01:49:58;;;;;;;6.20;4.65;;;2.20;96.00;;;;;;4954419;29;20193;-67
2022/11/27 01:52:29;;;;;;;10.30;5.78;;;2.20;96.20;;;;;;4953327;29;20241;-67
2022/11/27 01:55:01;;;;;;;9.77;6.13;;;2.20;95.80;;;;;;4952922;29;20217;-67
2022/11/27 01:57:34;;;;;;;18.45;6.30;;;2.10;95.30;;;;;;4954254;29;20245;-67
2022/11/27 02:00:03;;;;;;;9.48;5.38;;;2.10;95.60;;;;;;4952296;29;20220;-67
2022/11/27 02:02:32;;;;;;;11.73;5.60;;;2.10;95.60;;;;;;4954147;29;20205;-67
2022/11/27 02:04:59;;;;;;;7.85;5.05;;;2.00;95.20;;;;;;4952984;29;20269;-67
2022/11/27 02:07:26;;;;;;;13.02;5.38;;;1.90;95.20;;;;;;4954261;29;20226;-67
2022/11/27 02:09:53;;;;;;;17.00;4.88;;;1.90;95.50;;;;;;4952137;29;20253;-67
2022/11/27 02:12:24;;;;;;;12.38;5.40;;;1.90;95.20;;;;;;4954194;29;20229;-67
2022/11/27 02:15:00;;;;;;;10.90;5.60;;;1.80;95.20;;;;;;4952030;29;20277;-67
2022/11/27 02:17:35;;;;;;;6.20;4.57;;;1.80;95.40;;;;;;4954104;29;20300;-67
2022/11/27 02:20:19;;;;;;;11.68;5.40;;;1.90;95.40;;;;;;4952955;29;20216;-67
2022/11/27 02:23:14;;;;;;;9.88;4.65;;;1.90;95.30;;;;;;4953522;29;20606;-68
2022/11/27 02:25:58;;;;;;;6.82;4.53;;;1.90;95.00;;;;;;4954085;29;20245;-67
2022/11/27 02:28:40;;;;;;;7.53;4.68;;;2.00;95.10;;;;;;4952243;29;20225;-67
2022/11/27 02:31:13;;;;;;;8.32;4.82;;;2.00;95.20;;;;;;4952426;29;20239;-67
2022/11/27 02:33:45;;;;;;;8.10;4.75;;;2.00;95.30;;;;;;4952686;29;20641;-67
2022/11/27 02:36:18;;;;;;;8.35;5.35;;;2.10;95.10;;;;;;4954037;29;20197;-67
2022/11/27 02:38:51;;;;;;;6.50;4.75;;;2.10;95.20;;;;;;4952539;29;20277;-67
2022/11/27 02:41:24;;;;;;;6.60;4.78;;;2.10;95.30;;;;;;4953944;29;20189;-67
2022/11/27 02:43:53;;;;;;;10.57;5.18;;;2.20;95.10;;;;;;4952261;29;20312;-67
2022/11/27 02:46:22;;;;;;;12.85;5.80;;;2.20;94.90;;;;;;4953410;29;20229;-67
2022/11/27 02:48:53;;;;;;;15.68;5.28;;;2.20;94.70;;;;;;4952379;29;20193;-67
2022/11/27 02:51:25;;;;;;;6.10;4.30;;;2.20;94.80;;;;;;4954966;28;20194;-67
2022/11/27 02:53:55;;;;;;;14.52;5.55;;;2.20;94.40;;;;;;4955853;29;20695;-67
2022/11/27 02:56:26;;;;;;;12.90;5.68;;;2.20;94.00;;;;;;4955451;29;20726;-67
2022/11/27 02:58:56;;;;;;;14.57;4.90;;;2.10;94.10;;;;;;4954514;29;20645;-68
2022/11/27 03:01:29;;;;;;;19.95;6.10;;;2.00;94.20;;;;;;4956930;29;20511;-67
2022/11/27 03:03:59;;;;;;;8.57;4.57;;;2.00;94.40;;;;;;4956627;29;20232;-67
2022/11/27 03:06:31;;;;;;;20.63;3.92;;;1.90;94.40;;;;;;4950694;29;20187;-67
2022/11/27 03:09:04;;;;;;;6.97;4.88;;;1.80;94.30;;;;;;4937695;29;20245;-67
2022/11/27 03:11:32;;;;;;;7.22;3.65;;;1.80;94.70;;;;;;4936613;29;20194;-67
2022/11/27 03:14:05;;;;;;;7.38;4.10;;;1.70;94.90;;;;;;4937898;29;20194;-67
2022/11/27 03:16:40;;;;;;;10.43;5.32;;;1.70;95.00;;;;;;4936488;29;20528;-67
2022/11/27 03:19:16;;;;;;;7.43;4.40;;;1.70;94.90;;;;;;4937723;29;20201;-67
2022/11/27 03:21:46;;;;;;;16.88;5.00;;;1.70;94.30;;;;;;4936425;29;20248;-67
2022/11/27 03:24:13;;;;;;;14.43;4.70;;;1.70;94.70;;;;;;4937323;29;20222;-67
2022/11/27 03:26:41;;;;;;;9.75;3.03;;;1.70;94.90;;;;;;4936444;29;20190;-67
2022/11/27 03:29:12;;;;;;;13.35;4.45;;;1.60;94.90;;;;;;4937069;29;20650;-67
2022/11/27 03:31:41;;;;;;;6.40;4.32;;;1.50;94.70;;;;;;4936361;29;20187;-67
2022/11/27 03:34:08;;;;;;;6.03;3.33;;;1.40;95.00;;;;;;4937432;29;20202;-67
2022/11/27 03:36:35;;;;;;;14.40;3.72;;;1.30;95.30;;;;;;4936204;29;20198;-67
2022/11/27 03:39:03;;;;;;;8.50;4.20;;;1.20;95.10;;;;;;4936336;29;20194;-67
2022/11/27 03:41:41;;;;;;;11.52;5.22;;;1.20;95.40;;;;;;4935030;29;20190;-67
2022/11/27 03:44:15;;;;;;;6.32;4.18;;;1.20;95.80;;;;;;4937011;29;20202;-67
2022/11/27 03:46:53;;;;;;;6.97;3.90;;;1.30;95.90;;;;;;4935317;29;20214;-67
2022/11/27 03:49:28;;;;;;;7.97;3.50;;;1.30;95.70;;;;;;4937167;29;20197;-67
2022/11/27 03:52:01;;;;;;;5.38;3.78;;;1.40;95.70;;;;;;4936026;29;20226;-67
2022/11/27 03:54:42;;;;;;;12.63;4.50;;;1.40;95.60;;;;;;4937256;29;20207;-67
2022/11/27 03:57:17;;;;;;;5.68;3.60;;;1.40;94.80;;;;;;4935980;29;20198;-67
2022/11/27 03:59:47;;;;;;;10.40;4.65;;;1.40;95.00;;;;;;4936976;29;20257;-67
2022/11/27 04:02:16;;;;;;;6.07;3.85;;;1.40;94.80;;;;;;4935306;29;20242;-67
2022/11/27 04:04:43;;;;;;;5.35;3.85;;;1.40;94.90;;;;;;4948741;28;20225;-67
2022/11/27 04:07:16;;;;;;;9.15;4.40;;;1.50;94.30;;;;;;4954576;29;20669;-67
2022/11/27 04:09:43;;;;;;;10.88;4.78;;;1.50;93.90;;;;;;4956160;29;20229;-67
2022/11/27 04:12:10;;;;;;;13.23;4.63;;;1.40;93.40;;;;;;4955115;29;20657;-67
2022/11/27 04:14:37;;;;;;;6.50;3.65;;;1.40;93.40;;;;;;4954939;29;20213;-67
2022/11/27 04:17:04;;;;;;;11.82;4.20;;;1.30;93.10;;;;;;4956138;29;20225;-67
2022/11/27 04:19:33;;;;;;;9.07;4.18;;;1.30;93.20;;;;;;4954876;29;20212;-67
2022/11/27 04:22:00;;;;;;;11.32;4.68;;;1.20;93.10;;;;;;4956168;29;20232;-67
2022/11/27 04:24:27;;;;;;;9.02;4.65;;;1.20;93.10;;;;;;4955066;29;20652;-67
2022/11/27 04:26:53;;;;;;;7.80;4.55;;;1.10;92.90;;;;;;4956116;29;20577;-67
2022/11/27 04:29:21;;;;;;;15.43;4.15;;;1.00;92.70;;;;;;4955308;29;20600;-67
2022/11/27 04:31:48;;;;;;;8.90;4.72;;;1.00;92.90;;;;;;4936103;29;20213;-67
2022/11/27 04:34:14;;;;;;;5.63;3.67;;;0.90;93.10;;;;;;4936694;29;20194;-67
2022/11/27 04:36:45;;;;;;;6.82;3.60;;;0.80;93.40;;;;;;4953819;29;20228;-67
2022/11/27 04:39:12;;;;;;;7.90;4.40;;;0.80;93.60;;;;;;4955535;29;20644;-67
2022/11/27 04:41:39;;;;;;;19.42;5.60;;;0.90;93.80;;;;;;4955074;29;20312;-67
2022/11/27 04:44:06;;;;;;;14.63;5.35;;;0.90;93.30;;;;;;4955038;29;20257;-67
2022/11/27 04:46:33;;;;;;;4.78;3.97;;;0.80;93.00;;;;;;4954695;29;20222;-67
2022/11/27 04:49:00;;;;;;;11.95;5.38;;;0.80;93.20;;;;;;4955690;29;20535;-67
2022/11/27 04:51:27;;;;;;;8.48;4.25;;;0.80;93.50;;;;;;4954184;29;20181;-67
2022/11/27 04:53:56;;;;;;;15.13;5.20;;;0.90;93.60;;;;;;4955150;29;20233;-67
2022/11/27 04:56:23;;;;;;;9.73;5.97;;;0.80;93.70;;;;;;4954392;29;20225;-67
2022/11/27 04:58:50;;;;;;;8.20;5.55;;;0.90;94.00;;;;;;4955160;29;20233;-67
2022/11/27 05:01:17;;;;;;;7.75;5.28;;;0.90;93.70;;;;;;4953044;29;20308;-67
2022/11/27 05:03:46;;;;;;;10.95;4.70;;;0.90;93.80;;;;;;4955039;29;20307;-67
2022/11/27 05:06:13;;;;;;;10.30;5.20;;;1.00;93.60;;;;;;4953736;29;20185;-67
2022/11/27 05:08:40;;;;;;;6.88;4.68;;;1.00;93.40;;;;;;4955393;29;20711;-67
2022/11/27 05:11:12;;;;;;;5.05;3.80;;;1.00;93.20;;;;;;4954271;29;20190;-67
2022/11/27 05:13:39;;;;;;;6.60;4.32;;;1.00;92.90;;;;;;4954934;28;20731;-67
2022/11/27 05:16:07;;;;;;;6.03;4.63;;;1.00;92.50;;;;;;4953837;29;20269;-67
2022/11/27 05:18:34;;;;;;;6.72;5.50;;;1.00;92.20;;;;;;4954751;29;20233;-67
2022/11/27 05:21:03;;;;;;;6.22;4.43;;;1.00;92.00;;;;;;4953747;29;20225;-67
2022/11/27 05:23:30;;;;;;;8.38;6.25;;;1.00;91.90;;;;;;4954748;29;20201;-67
2022/11/27 05:25:57;;;;;;;6.43;5.78;;;1.00;91.90;;;;;;4953312;29;20225;-67
2022/11/27 05:28:26;;;;;;;4.78;4.18;;;0.90;91.30;;;;;;4954852;29;20193;-67
2022/11/27 05:30:53;;;;;;;6.50;5.20;;;0.90;91.30;;;;;;4953988;29;20214;-67
2022/11/27 05:33:20;;;;;;;6.93;5.82;;;0.90;91.40;;;;;;4954963;29;20564;-67
2022/11/27 05:35:47;;;;;;;9.75;5.55;;;0.90;91.20;;;;;;4953839;29;20239;-67
2022/11/27 05:38:14;;;;;;;6.80;5.35;;;0.90;91.10;;;;;;4954839;29;20248;-67
2022/11/27 05:40:41;;;;;;;6.35;4.35;;;0.90;91.30;;;;;;4953701;29;20211;-67
2022/11/27 05:43:08;;;;;;;11.60;5.63;;;0.70;90.70;;;;;;4954997;29;20241;-67
2022/11/27 05:45:37;;;;;;;7.53;4.82;;;0.70;90.80;;;;;;4953108;29;20240;-67
2022/11/27 05:48:04;;;;;;;14.10;4.90;;;0.60;90.80;;;;;;4954866;29;20284;-67
2022/11/27 05:50:31;;;;;;;7.65;4.20;;;0.50;91.10;;;;;;4952948;29;20190;-67
2022/11/27 05:52:58;;;;;;;5.18;3.80;;;0.50;91.10;;;;;;4954925;29;20257;-67
2022/11/27 05:55:25;;;;;;;17.40;4.07;;;0.40;91.40;;;;;;4953443;29;20735;-67
2022/11/27 05:57:52;;;;;;;11.88;4.75;;;0.30;91.30;;;;;;4954048;29;20299;-66
2022/11/27 06:00:19;;;;;;;10.63;5.18;;;0.20;91.40;;;;;;4953441;29;20304;-67
2022/11/27 06:02:48;;;;;;;7.80;4.53;;;0.10;91.60;;;;;;4954319;29;20277;-67
2022/11/27 06:05:15;;;;;;;11.80;4.45;;;0.00;91.60;;;;;;4953853;29;20366;-67
2022/11/27 06:07:42;;;;;;;9.23;5.68;;;-0.10;91.80;;;;;;4935094;29;20657;-67
2022/11/27 06:10:10;;;;;;;7.93;5.63;;;-0.20;91.90;;;;;;4935403;29;20606;-67
2022/11/27 06:12:37;;;;;;;8.20;5.00;;;-0.30;92.10;;;;;;4952828;29;20190;-67
2022/11/27 06:15:04;;;;;;;10.85;5.78;;;-0.30;92.10;;;;;;4954275;29;20253;-67
2022/11/27 06:17:31;;;;;;;6.65;4.60;;;-0.30;91.80;;;;;;4953318;29;20218;-67
2022/11/27 06:20:00;;;;;;;7.10;4.57;;;-0.30;91.70;;;;;;4954257;29;20201;-67
2022/11/27 06:22:27;;;;;;;6.38;4.50;;;-0.30;91.90;;;;;;4952476;29;20229;-67
2022/11/27 06:24:54;;;;;;;7.15;4.60;;;-0.30;92.00;;;;;;4954356;28;20284;-67
2022/11/27 06:27:21;;;;;;;5.20;3.60;;;-0.20;92.00;;;;;;4955891;29;20186;-67
2022/11/27 06:29:48;;;;;;;4.63;3.22;;;-0.30;91.30;;;;;;4958029;29;20700;-67
2022/11/27 06:32:15;;;;;;;5.40;3.63;;;-0.40;90.90;;;;;;4956897;29;20232;-67
2022/11/27 06:34:42;;;;;;;4.45;3.10;;;-0.50;90.90;;;;;;4957990;29;20633;-67
2022/11/27 06:37:10;;;;;;;6.82;5.15;;;-0.60;90.80;;;;;;4956481;29;20225;-67
2022/11/27 06:39:37;;;;;;;9.63;5.05;;;-0.60;90.90;;;;;;4958036;29;20190;-67
2022/11/27 06:42:04;;;;;;;6.85;4.30;;;-0.60;90.90;;;;;;4956901;29;20571;-67
2022/11/27 06:44:31;;;;;;;6.18;5.35;;;-0.60;90.90;;;;;;4957831;29;20653;-67
2022/11/27 06:46:58;;;;;;;7.07;4.95;;;-0.70;90.80;;;;;;4956342;29;20572;-67
2022/11/27 06:49:25;;;;;;;9.77;5.43;;;-0.60;90.60;;;;;;4957668;29;20607;-67
2022/11/27 06:51:52;;;;;;;7.68;5.30;;;-0.60;90.80;;;;;;4956284;29;20586;-67
2022/11/27 06:54:21;;;;;;;8.13;4.90;;;-0.50;91.10;;;;;;4957233;29;20277;-67
2022/11/27 06:56:50;;;;;;;7.25;4.72;;;-0.50;91.20;;;;;;4956120;29;20194;-67
2022/11/27 06:59:17;;;;;;;5.65;5.13;;;-0.40;91.10;;;;;;4948253;29;20547;-67
2022/11/27 07:01:45;;;;;;;7.65;5.20;;;-0.40;90.80;;;;;;4954621;29;20249;-67
2022/11/27 07:04:14;;;;;;;7.85;5.10;;;-0.30;90.90;;;;;;4953869;29;20362;-67
2022/11/27 07:06:41;;;;;;;6.80;4.38;;;-0.30;91.10;;;;;;4941593;29;20197;-67
2022/11/27 07:09:15;;;;;;;7.40;5.30;;;-0.10;91.50;;;;;;4956410;29;20194;-67
2022/11/27 07:11:43;;;;;;;5.35;4.20;;;0.10;92.10;;;;;;4954347;29;20202;-67
2022/11/27 07:14:12;;;;;;;7.88;4.68;;;0.40;92.20;;;;;;4955945;29;20197;-66
2022/11/27 07:16:39;;;;;;;6.85;4.95;;;0.80;91.30;;;;;;4947137;29;20568;-65
2022/11/27 07:19:08;;;;;;;7.88;5.55;;;1.20;90.40;;;;;;4948972;29;20194;-66
2022/11/27 07:21:37;;;;;;;9.23;4.75;;;1.50;89.00;;;;;;4943751;28;20758;-66
2022/11/27 07:24:06;;;;;;;16.80;8.85;;;1.80;87.40;;;;;;4955990;28;20338;-65
2022/11/27 07:26:37;;;;;;;10.15;6.53;;;2.10;85.00;;;;;;4943333;28;20217;-65
2022/11/27 07:29:05;;;;;;;9.13;7.75;;;2.40;82.50;;;;;;4951011;29;20834;-65
2022/11/27 07:31:33;;;;;;;10.55;7.70;;;2.90;80.70;;;;;;4945542;28;20228;-65
2022/11/27 07:34:04;;;;;;;14.63;9.60;;;3.10;80.30;;;;;;4961305;28;20237;-66
2022/11/27 07:36:31;;;;;;;12.25;7.70;;;3.30;83.00;;;;;;4945733;28;20228;-65
2022/11/27 07:39:02;;;;;;;18.40;10.20;;;3.50;82.30;;;;;;4961728;28;20249;-65
2022/11/27 07:41:30;;;;;;;13.75;10.57;;;3.90;79.70;;;;;;4945269;28;20300;-65
2022/11/27 07:43:58;;;;;;;9.80;7.05;;;4.20;75.20;;;;;;4943197;29;20229;-65
2022/11/27 07:46:28;;;;;;;8.52;6.78;;;4.40;73.90;;;;;;4933008;28;20236;-65
2022/11/27 07:48:56;;;;;;;6.80;6.10;;;4.60;72.40;;;;;;4965777;28;20190;-65
2022/11/27 07:51:24;;;;;;;9.45;8.43;;;4.80;70.40;;;;;;4956367;29;20851;-65
2022/11/27 07:53:51;;;;;;;11.05;9.40;;;5.00;69.90;;;;;;4954185;29;20190;-65
2022/11/27 07:56:19;;;;;;;11.38;9.70;;;5.10;69.20;;;;;;4956251;29;20193;-65
2022/11/27 07:58:47;;;;;;;12.65;10.30;;;5.30;65.90;;;;;;4954537;29;20256;-65
2022/11/27 08:01:15;;;;;;;9.43;7.50;;;5.30;65.50;;;;;;4955885;29;20316;-65
2022/11/27 08:03:46;;;;;;;10.40;7.90;;;5.30;65.70;;;;;;4953344;29;20222;-65
2022/11/27 08:06:18;;;;;;;11.40;8.82;;;5.20;64.40;;;;;;4955962;29;20296;-65
2022/11/27 08:08:46;;;;;;;11.50;8.90;;;4.90;65.60;;;;;;4955079;29;20186;-65
2022/11/27 08:11:19;;;;;;;8.40;6.32;;;4.80;66.70;;;;;;4956288;29;20281;-65
2022/11/27 08:13:47;;;;;;;7.72;6.50;;;4.70;67.80;;;;;;4954488;29;20191;-65
2022/11/27 08:16:16;;;;;;;5.38;4.82;;;4.70;68.40;;;;;;4954928;29;20194;-65
2022/11/27 08:18:45;;;;;;;7.97;6.18;;;4.90;69.10;;;;;;4955006;29;20189;-65
2022/11/27 08:21:12;;;;;;;6.70;5.15;;;5.30;68.60;;;;;;4955599;29;20225;-65
2022/11/27 08:23:40;;;;;;;7.50;6.75;;;5.60;66.50;;;;;;4954359;29;20558;-65
2022/11/27 08:26:09;;;;;;;5.63;5.03;;;5.80;67.50;;;;;;4955348;29;20198;-65
2022/11/27 08:28:37;;;;;;;5.75;4.20;;;6.20;67.40;;;;;;4953327;29;20732;-65
2022/11/27 08:31:06;;;;;;;6.55;5.30;;;6.60;66.10;;;;;;4955460;29;20194;-65
2022/11/27 08:33:34;;;;;;;5.72;4.80;;;6.90;65.40;;;;;;4951082;29;20190;-65
2022/11/27 08:36:03;;;;;;;5.70;5.07;;;7.20;64.10;;;;;;4953317;28;20220;-65
2022/11/27 08:38:31;;;;;;;8.25;7.13;;;7.40;64.10;;;;;;4952297;29;20752;-65
2022/11/27 08:41:00;;;;;;;6.88;5.88;;;7.60;62.50;;;;;;4955265;29;20225;-65
2022/11/27 08:43:28;;;;;;;7.35;6.55;;;7.50;59.90;;;;;;4951794;29;20229;-65
2022/11/27 08:45:56;;;;;;;8.80;5.95;;;7.50;60.80;;;;;;4955245;29;20209;-65
2022/11/27 08:48:24;;;;;;;10.85;7.53;;;7.70;61.10;;;;;;4952248;28;20185;-65
2022/11/27 08:50:52;;;;;;;10.88;7.45;;;7.80;60.60;;;;;;4955022;29;20218;-66
2022/11/27 08:53:21;;;;;;;9.20;6.72;;;8.00;59.40;;;;;;4955003;29;20194;-66
2022/11/27 08:55:49;;;;;;;7.28;6.50;;;8.20;58.90;;;;;;4955107;29;20202;-65
2022/11/27 08:58:16;;;;;;;11.05;7.80;;;8.50;58.30;;;;;;4955167;29;20197;-66
2022/11/27 09:00:44;;;;;;;12.18;8.43;;;8.60;58.80;;;;;;4954820;29;20280;-66
2022/11/27 09:03:12;;;;;;;8.65;7.35;;;8.80;58.40;;;;;;4955082;29;20205;-65
2022/11/27 09:05:43;;;;;;;10.90;7.63;;;9.00;57.70;;;;;;4935863;29;20618;-65
2022/11/27 09:08:15;;;;;;;10.07;7.43;;;9.30;57.30;;;;;;4935674;29;20210;-65
2022/11/27 09:10:43;;;;;;;7.88;7.05;;;9.60;56.40;;;;;;4935177;29;20203;-65
2022/11/27 09:13:11;;;;;;;8.20;7.38;;;9.70;56.00;;;;;;4935758;29;20194;-65
2022/11/27 09:15:43;;;;;;;8.05;6.55;;;9.90;55.70;;;;;;4935601;29;20664;-66
2022/11/27 09:18:11;;;;;;;9.05;6.75;;;10.20;53.40;;;;;;4935516;29;20182;-66
2022/11/27 09:20:38;;;;;;;9.13;6.70;;;10.20;52.90;;;;;;4933024;29;20205;-66
2022/11/27 09:23:08;;;;;;;8.98;6.82;;;10.50;53.30;;;;;;4933703;29;20200;-66
2022/11/27 09:25:41;;;;;;;8.93;7.72;;;11.00;53.10;;;;;;4929219;29;20186;-66
2022/11/27 09:28:10;;;;;;;6.85;6.03;;;11.30;51.20;;;;;;4933540;29;20226;-66
2022/11/27 09:30:38;;;;;;;8.95;7.00;;;11.30;50.80;;;;;;4931679;29;20186;-66
2022/11/27 09:33:06;;;;;;;9.90;8.38;;;11.60;50.70;;;;;;4933764;29;20186;-66
2022/11/27 09:35:39;;;;;;;10.82;7.80;;;11.80;51.50;;;;;;4934211;29;20235;-66
2022/11/27 09:38:13;;;;;;;6.38;5.70;;;12.50;51.70;;;;;;4935415;29;20247;-66
2022/11/27 09:40:47;;;;;;;6.88;5.15;;;13.10;49.70;;;;;;4938545;29;20261;-66
2022/11/27 09:43:19;;;;;;;9.93;6.35;;;13.70;49.90;;;;;;4934298;29;20656;-66
2022/11/27 09:46:02;;;;;;;8.35;7.55;;;14.20;46.60;;;;;;4933269;29;20233;-66
2022/11/27 09:48:36;;;;;;;7.80;5.07;;;14.30;47.70;;;;;;4931684;29;20435;-66
2022/11/27 09:51:09;;;;;;;7.63;6.10;;;14.70;46.00;;;;;;4933847;29;20942;-66
2022/11/27 09:53:51;;;;;;;8.30;6.00;;;14.90;45.70;;;;;;4918302;29;20497;-66
2022/11/27 09:56:20;;;;;;;6.83;6.07;;;15.30;44.60;;;;;;4932042;29;20461;-66
2022/11/27 09:58:57;;;;;;;6.03;4.80;;;15.70;44.70;;;;;;4932869;29;20474;-66
2022/11/27 10:01:31;;;;;;;5.70;4.87;;;16.10;44.10;;;;;;4935310;29;20481;-66
2022/11/27 10:04:01;;;;;;;4.67;4.10;;;16.50;43.60;;;;;;4943362;29;20469;-66
2022/11/27 10:06:34;;;;;;;5.10;4.07;;;16.70;40.90;;;;;;4957356;29;20472;-64
2022/11/27 10:09:12;;;;;;;3.93;3.10;;;16.90;41.70;;;;;;4956290;29;20441;-65
2022/11/27 10:11:52;;;;;;;4.40;3.67;;;17.40;41.20;;;;;;4957082;29;20449;-65
2022/11/27 10:14:36;;;;;;;5.63;4.20;;;17.60;38.80;;;;;;4956601;29;20454;-65
2022/11/27 10:17:10;;;;;;;6.40;5.03;;;17.60;38.70;;;;;;4957029;29;20528;-65
2022/11/27 10:19:46;;;;;;;6.43;5.40;;;17.80;38.80;;;;;;4956229;29;20476;-65
2022/11/27 10:22:24;;;;;;;6.50;5.03;;;18.10;39.90;;;;;;4956219;29;20567;-65
2022/11/27 10:25:04;;;;;;;6.27;4.57;;;18.40;37.10;;;;;;4956508;29;20449;-65
2022/11/27 10:27:38;;;;;;;8.00;5.00;;;18.30;38.00;;;;;;4956833;29;20558;-65
2022/11/27 10:30:16;;;;;;;6.67;4.30;;;18.80;39.20;;;;;;4956597;29;20445;-65
2022/11/27 10:32:46;;;;;;;5.77;4.10;;;19.10;37.40;;;;;;4956996;29;20440;-65
2022/11/27 10:35:18;;;;;;;4.83;2.80;;;19.50;37.00;;;;;;4956701;29;20441;-65
2022/11/27 10:37:52;;;;;;;4.17;3.00;;;19.70;35.60;;;;;;4956718;29;20449;-65
2022/11/27 10:40:34;;;;;;;4.87;3.60;;;19.90;35.50;;;;;;4955832;29;20468;-65
2022/11/27 10:43:10;;;;;;;4.47;3.40;;;20.10;34.50;;;;;;4956654;29;20583;-66
2022/11/27 10:45:48;;;;;;;4.00;3.13;;;20.40;32.50;;;;;;4956250;29;20472;-65
2022/11/27 10:48:21;;;;;;;5.30;3.07;;;20.40;31.50;;;;;;4957270;29;20967;-65
2022/11/27 10:50:49;;;;;;;5.97;4.30;;;20.40;31.70;;;;;;4957133;29;20468;-65
2022/11/27 10:53:30;;;;;;;5.23;3.37;;;20.30;32.90;;;;;;4957342;29;20442;-66
2022/11/27 10:56:14;;;;;;;4.00;2.70;;;20.50;30.50;;;;;;4957209;29;20470;-65
2022/11/27 10:58:47;;;;;;;3.87;2.63;;;20.40;29.50;;;;;;4957099;29;20449;-65
2022/11/27 11:01:24;;;;;;;4.10;2.60;;;20.40;30.60;;;;;;4956885;29;20445;-65
2022/11/27 11:04:04;;;;;;;3.93;2.20;;;20.00;28.50;;;;;;4956921;29;20472;-65
2022/11/27 11:06:34;;;;;;;4.50;2.80;;;19.60;30.10;;;;;;4956838;29;20460;-65
2022/11/27 11:09:04;;;;;;;4.33;3.00;;;20.10;31.20;;;;;;4957270;29;20441;-65
2022/11/27 11:11:32;;;;;;;3.20;2.33;;;20.60;31.80;;;;;;4956421;28;20453;-65
2022/11/27 11:13:59;;;;;;;3.80;2.87;;;21.00;31.90;;;;;;4957026;29;20442;-65
2022/11/27 11:16:31;;;;;;;3.63;2.17;;;21.20;30.30;;;;;;4957001;29;20449;-65
2022/11/27 11:19:01;;;;;;;3.70;2.10;;;21.30;29.50;;;;;;4956973;29;20962;-65
2022/11/27 11:21:31;;;;;;;5.30;2.10;;;21.40;29.50;;;;;;4956637;29;20441;-65
2022/11/27 11:24:01;;;;;;;4.40;2.30;;;21.30;29.10;;;;;;4956792;29;20446;-65
2022/11/27 11:26:30;;;;;;;3.90;2.50;;;21.30;28.80;;;;;;4956656;29;20524;-65
2022/11/27 11:29:00;;;;;;;3.77;2.63;;;21.40;29.70;;;;;;4956563;29;20500;-65
2022/11/27 11:31:36;;;;;;;4.90;2.37;;;21.50;29.30;;;;;;4956568;29;20955;-64
2022/11/27 11:34:20;;;;;;;4.50;2.57;;;21.50;29.30;;;;;;4956483;29;20441;-65
2022/11/27 11:36:56;;;;;;;4.93;2.13;;;21.40;29.30;;;;;;4956561;29;20481;-65
2022/11/27 11:39:28;;;;;;;3.87;2.50;;;21.60;29.40;;;;;;4954972;29;20487;-65
2022/11/27 11:41:57;;;;;;;3.07;1.80;;;21.20;28.90;;;;;;4956351;29;20476;-65
2022/11/27 11:44:30;;;;;;;5.17;2.47;;;20.80;28.40;;;;;;4956160;29;20453;-65
2022/11/27 11:46:59;;;;;;;4.13;2.33;;;20.80;29.40;;;;;;4956499;29;21251;-65
2022/11/27 11:49:28;;;;;;;3.23;1.57;;;20.90;30.10;;;;;;4956334;29;20446;-65
2022/11/27 11:52:11;;;;;;;2.47;1.60;;;21.00;28.60;;;;;;4956296;29;20468;-65
2022/11/27 11:54:51;;;;;;;3.23;2.10;;;20.60;29.80;;;;;;4956425;29;20488;-65
2022/11/27 11:57:58;;;;;;;3.70;2.10;;;20.20;29.10;;;;;;4955864;29;20441;-65
2022/11/27 12:00:35;;;;;;;4.00;2.20;;;19.80;29.90;;;;;;4956039;29;20448;-65
2022/11/27 12:03:23;;;;;;;4.50;2.90;;;19.40;30.00;;;;;;4954371;28;20503;-65
2022/11/27 12:06:08;;;;;;;3.40;2.03;;;19.10;30.90;;;;;;4955259;28;20460;-65
2022/11/27 12:08:49;;;;;;;3.63;1.97;;;18.80;31.80;;;;;;4955179;28;20453;-65
2022/11/27 12:11:22;;;;;;;4.57;2.40;;;18.80;31.40;;;;;;4954815;28;20520;-65
2022/11/27 12:14:02;;;;;;;4.20;2.00;;;18.50;31.40;;;;;;4955991;28;20468;-65
2022/11/27 12:16:44;;;;;;;3.23;2.30;;;18.60;32.30;;;;;;4954700;28;20536;-65
2022/11/27 12:19:41;;;;;;;3.17;1.87;;;18.50;31.70;;;;;;4953371;28;20457;-65
2022/11/27 12:22:28;;;;;;;3.60;2.10;;;18.10;32.00;;;;;;4945690;28;20485;-66
2022/11/27 12:25:05;;;;;;;3.53;2.00;;;17.70;32.10;;;;;;4952523;28;20515;-65
2022/11/27 12:27:45;;;;;;;4.33;2.50;;;17.10;33.20;;;;;;4955372;28;20963;-64
2022/11/27 12:30:15;;;;;;;3.57;2.20;;;16.80;33.60;;;;;;4954010;29;20457;-65
2022/11/27 12:33:15;;;;;;;4.53;2.13;;;16.60;33.90;;;;;;4956256;28;20485;-64
2022/11/27 12:35:52;;;;;;;3.57;2.50;;;16.50;34.80;;;;;;4951667;28;20957;-64
2022/11/27 12:38:38;;;;;;;2.80;2.10;;;16.70;34.60;;;;;;4952870;28;20457;-64
2022/11/27 12:41:26;;;;;;;3.90;2.20;;;16.60;34.60;;;;;;4952549;29;20465;-64
2022/11/27 12:43:59;;;;;;;4.00;2.57;;;16.10;35.80;;;;;;4953974;28;20546;-65
2022/11/27 12:46:37;;;;;;;3.57;2.43;;;16.10;36.60;;;;;;4960909;28;20867;-64
2022/11/27 12:49:12;;;;;;;4.33;2.70;;;16.10;35.80;;;;;;4957593;28;20467;-64
2022/11/27 12:51:48;;;;;;;7.73;2.30;;;16.00;35.40;;;;;;4953722;29;20448;-64
2022/11/27 12:54:22;;;;;;;3.40;2.23;;;16.10;36.00;;;;;;4953190;28;20461;-64
2022/11/27 12:56:56;;;;;;;3.43;1.87;;;16.10;36.10;;;;;;4953920;28;20452;-65
2022/11/27 12:59:32;;;;;;;4.00;2.43;;;15.90;36.00;;;;;;4954115;28;20469;-65
2022/11/27 13:02:23;;;;;;;3.47;2.67;;;15.90;36.30;;;;;;4953865;28;20487;-64
2022/11/27 13:04:54;;;;;;;4.43;2.53;;;15.90;36.60;;;;;;4953341;28;21021;-64
2022/11/27 13:07:28;;;;;;;5.00;2.73;;;15.70;36.60;;;;;;4952941;28;20489;-65
2022/11/27 13:10:05;;;;;;;6.30;3.00;;;15.70;37.00;;;;;;4947580;28;20480;-64